createdAt,value
2019-01-31T00:00:43.974Z,79.41
2019-01-31T00:03:27.065Z,79.53
2019-01-31T00:06:08.142Z,79.40
2019-01-31T00:09:17.288Z,79.70
2019-01-31T00:11:59.075Z,79.78
2019-01-31T00:14:46.444Z,79.57
2019-01-31T00:17:34.342Z,79.55
2019-01-31T00:20:18.951Z,79.62
2019-01-31T00:23:10.797Z,79.97
2019-01-31T00:26:01.614Z,79.96
2019-01-31T00:28:40.128Z,80.10
2019-01-31T00:31:21.750Z,80.17
2019-01-31T00:34:03.299Z,80.47
2019-01-31T00:36:35.927Z,80.75
2019-01-31T00:39:23.477Z,80.73
2019-01-31T00:42:01.660Z,80.66
2019-01-31T00:44:37.228Z,80.32
2019-01-31T00:47:15.560Z,80.06
2019-01-31T00:49:56.920Z,80.60
2019-01-31T00:52:32.500Z,81.16
2019-01-31T00:55:28.984Z,81.22
2019-01-31T00:58:07.466Z,81.24
2019-01-31T01:00:52.012Z,80.97
2019-01-31T01:03:24.655Z,81.15
2019-01-31T01:06:28.974Z,81.04
2019-01-31T01:09:08.238Z,80.83
2019-01-31T01:11:56.005Z,80.91
2019-01-31T01:14:49.865Z,81.11
2019-01-31T01:17:26.828Z,81.12
2019-01-31T01:20:14.274Z,81.09
2019-01-31T01:22:53.194Z,81.04
2019-01-31T01:25:34.388Z,80.95
2019-01-31T01:28:22.990Z,81.35
2019-01-31T01:31:31.138Z,81.43
2019-01-31T01:34:09.761Z,81.58
2019-01-31T01:36:45.199Z,81.52
2019-01-31T01:39:44.715Z,81.24
2019-01-31T01:42:42.167Z,81.17
2019-01-31T01:45:17.542Z,81.25
2019-01-31T01:48:11.041Z,81.69
2019-01-31T01:50:46.448Z,82.07
2019-01-31T01:53:39.898Z,82.14
2019-01-31T01:56:31.727Z,81.86
2019-01-31T01:59:27.387Z,82.25
2019-01-31T02:02:17.392Z,82.52
2019-01-31T02:04:59.083Z,82.51
2019-01-31T02:07:48.517Z,82.78
2019-01-31T02:10:28.695Z,83.15
2019-01-31T02:13:17.980Z,83.47
2019-01-31T02:15:56.579Z,83.52
2019-01-31T02:18:31.873Z,83.01
2019-01-31T02:21:21.078Z,82.80
2019-01-31T02:24:02.997Z,83.03
2019-01-31T02:27:07.427Z,82.59
2019-01-31T02:29:56.385Z,82.64
2019-01-31T02:32:34.615Z,82.52
2019-01-31T02:35:07.252Z,82.65
2019-01-31T02:37:42.390Z,82.68
2019-01-31T02:40:37.038Z,82.83
2019-01-31T02:43:12.362Z,82.93
2019-01-31T02:46:13.653Z,82.72
2019-01-31T02:48:51.837Z,82.45
2019-01-31T02:51:48.365Z,82.66
2019-01-31T02:54:26.757Z,82.77
2019-01-31T02:57:02.385Z,82.76
2019-01-31T02:59:47.156Z,82.64
2019-01-31T03:02:20.544Z,82.82
2019-01-31T03:05:05.200Z,82.65
2019-01-31T03:07:43.654Z,82.67
2019-01-31T03:10:24.562Z,82.95
2019-01-31T03:13:13.595Z,82.77
2019-01-31T03:16:04.003Z,82.64
2019-01-31T03:18:54.906Z,82.45
2019-01-31T03:21:45.793Z,82.57
2019-01-31T03:24:21.105Z,82.71
2019-01-31T03:26:59.517Z,83.09
2019-01-31T03:29:35.122Z,83.52
2019-01-31T03:32:10.509Z,83.99
2019-01-31T03:34:49.123Z,84.08
2019-01-31T03:37:28.235Z,83.96
2019-01-31T03:40:07.103Z,83.90
2019-01-31T03:42:41.685Z,83.89
2019-01-31T03:45:25.937Z,84.04
2019-01-31T03:48:10.530Z,84.33
2019-01-31T03:50:43.167Z,84.41
2019-01-31T03:53:22.009Z,84.82
2019-01-31T03:56:09.475Z,84.85
2019-01-31T03:58:50.868Z,85.24
2019-01-31T04:01:29.395Z,85.87
2019-01-31T04:04:13.859Z,85.69
2019-01-31T04:06:43.325Z,85.79
2019-01-31T04:09:12.871Z,85.83
2019-01-31T04:11:42.338Z,86.08
2019-01-31T04:14:11.800Z,85.68
2019-01-31T04:16:41.337Z,85.80
2019-01-31T04:19:10.809Z,86.00
2019-01-31T04:21:40.281Z,86.17
2019-01-31T04:24:10.653Z,86.35
2019-01-31T04:26:40.085Z,86.65
2019-01-31T04:29:09.596Z,86.59
2019-01-31T04:31:39.073Z,86.92
2019-01-31T04:34:08.584Z,87.25
2019-01-31T04:36:38.064Z,87.26
2019-01-31T04:39:09.367Z,86.87
2019-01-31T04:41:38.863Z,86.95
2019-01-31T04:44:08.320Z,86.86
2019-01-31T04:46:37.786Z,86.85
2019-01-31T04:49:07.315Z,86.98
2019-01-31T04:51:36.862Z,86.92
2019-01-31T04:54:06.775Z,86.94
2019-01-31T04:56:36.286Z,87.45
2019-01-31T04:59:05.750Z,87.46
2019-01-31T05:01:35.305Z,87.49
2019-01-31T05:04:04.825Z,87.70
2019-01-31T05:06:34.304Z,87.55
2019-01-31T05:09:05.400Z,87.70
2019-01-31T05:11:34.896Z,87.61
2019-01-31T05:14:04.353Z,87.77
2019-01-31T05:16:33.817Z,87.86
2019-01-31T05:19:03.287Z,87.99
2019-01-31T05:21:33.042Z,88.17
2019-01-31T05:24:02.516Z,88.45
2019-01-31T05:26:32.366Z,88.54
2019-01-31T05:29:02.169Z,88.62
2019-01-31T05:31:31.641Z,88.74
2019-01-31T05:34:01.129Z,88.96
2019-01-31T05:36:30.703Z,89.01
2019-01-31T05:39:00.180Z,88.99
2019-01-31T05:41:29.643Z,89.14
2019-01-31T05:43:59.402Z,89.38
2019-01-31T05:46:29.228Z,89.43
2019-01-31T05:48:58.978Z,89.68
2019-01-31T05:51:28.490Z,89.53
2019-01-31T05:53:58.468Z,89.63
2019-01-31T05:56:27.958Z,91.62
2019-01-31T05:58:57.772Z,89.16
2019-01-31T06:01:27.240Z,88.62
2019-01-31T06:03:56.722Z,88.94
2019-01-31T06:06:26.249Z,89.22
2019-01-31T06:08:56.286Z,87.14
2019-01-31T06:11:25.822Z,88.28
2019-01-31T06:13:55.293Z,85.85
2019-01-31T06:16:24.886Z,87.04
2019-01-31T06:18:54.359Z,86.90
2019-01-31T06:21:23.815Z,86.39
2019-01-31T06:23:53.626Z,87.43
2019-01-31T06:26:23.136Z,88.16
2019-01-31T06:28:52.587Z,88.30
2019-01-31T06:31:22.095Z,88.71
2019-01-31T06:33:52.741Z,89.16
2019-01-31T06:36:22.503Z,89.44
2019-01-31T06:38:52.296Z,90.01
2019-01-31T06:41:21.825Z,90.64
2019-01-31T06:43:51.291Z,90.48
2019-01-31T06:46:20.756Z,90.69
2019-01-31T06:48:50.807Z,90.60
2019-01-31T06:51:20.263Z,90.47
2019-01-31T06:53:49.991Z,90.53
2019-01-31T06:56:19.460Z,90.50
2019-01-31T06:58:48.936Z,90.35
2019-01-31T07:01:18.775Z,90.14
2019-01-31T07:03:48.242Z,89.96
2019-01-31T07:06:17.802Z,90.05
2019-01-31T07:08:47.271Z,90.10
2019-01-31T07:11:16.728Z,90.08
2019-01-31T07:13:46.502Z,89.90
2019-01-31T07:16:15.965Z,90.17
2019-01-31T07:18:45.524Z,89.91
2019-01-31T07:21:15.004Z,89.96
2019-01-31T07:23:45.985Z,89.84
2019-01-31T07:26:15.617Z,89.61
2019-01-31T07:28:45.388Z,89.47
2019-01-31T07:31:15.004Z,89.08
2019-01-31T07:33:44.487Z,88.99
2019-01-31T07:36:14.020Z,88.99
2019-01-31T07:38:43.475Z,88.74
2019-01-31T07:41:13.018Z,88.15
2019-01-31T07:43:42.504Z,88.24
2019-01-31T07:46:11.953Z,87.98
2019-01-31T07:48:41.436Z,87.28
2019-01-31T07:51:11.226Z,87.14
2019-01-31T07:53:40.719Z,86.76
2019-01-31T07:56:10.178Z,86.55
2019-01-31T07:58:39.688Z,84.83
2019-01-31T08:01:09.492Z,83.21
2019-01-31T08:03:40.813Z,82.15
2019-01-31T08:06:10.345Z,79.55
2019-01-31T08:08:39.812Z,76.40
2019-01-31T08:11:09.352Z,74.12
2019-01-31T08:13:38.822Z,71.40
2019-01-31T08:16:08.269Z,71.70
2019-01-31T08:18:37.819Z,73.35
2019-01-31T08:21:07.266Z,75.21
2019-01-31T08:23:36.734Z,74.81
2019-01-31T08:26:06.264Z,73.07
2019-01-31T08:28:35.982Z,70.00
2019-01-31T08:31:05.530Z,70.01
2019-01-31T08:33:35.321Z,70.81
2019-01-31T08:36:05.051Z,72.43
2019-01-31T08:38:36.687Z,74.03
2019-01-31T08:41:06.261Z,74.84
2019-01-31T08:43:36.062Z,75.15
2019-01-31T08:46:05.578Z,74.44
2019-01-31T08:48:35.213Z,71.86
2019-01-31T08:51:04.669Z,65.94
2019-01-31T08:53:34.136Z,59.99
2019-01-31T08:56:03.602Z,57.57
2019-01-31T08:58:33.079Z,53.22
2019-01-31T09:01:02.798Z,52.08
2019-01-31T09:03:32.609Z,51.69
2019-01-31T09:06:02.065Z,52.26
2019-01-31T09:08:31.923Z,53.56
2019-01-31T09:11:01.742Z,54.10
2019-01-31T09:13:31.217Z,52.26
2019-01-31T09:16:01.270Z,52.61
2019-01-31T09:18:31.080Z,50.27
2019-01-31T09:21:03.947Z,48.90
2019-01-31T09:23:48.580Z,49.18
2019-01-31T09:26:45.204Z,47.76
2019-01-31T09:29:23.664Z,48.82
2019-01-31T09:32:12.788Z,46.83
2019-01-31T09:34:50.964Z,47.26
2019-01-31T09:37:55.891Z,46.43
2019-01-31T09:40:34.029Z,44.98
2019-01-31T09:43:21.833Z,45.55
2019-01-31T09:46:06.495Z,42.74
2019-01-31T09:48:45.078Z,44.05
2019-01-31T09:51:29.812Z,47.10
2019-01-31T09:54:02.456Z,46.04
2019-01-31T09:56:57.887Z,44.28
2019-01-31T09:59:33.438Z,44.38
2019-01-31T10:02:08.770Z,43.78
2019-01-31T10:04:59.225Z,43.85
2019-01-31T10:07:43.861Z,44.01
2019-01-31T10:10:36.130Z,45.34
2019-01-31T10:13:11.787Z,46.02
2019-01-31T10:15:47.341Z,44.75
2019-01-31T10:18:45.611Z,44.36
2019-01-31T10:21:21.399Z,46.41
2019-01-31T10:24:13.465Z,46.99
2019-01-31T10:26:49.156Z,47.85
2019-01-31T10:29:27.990Z,46.93
2019-01-31T10:32:03.299Z,44.64
2019-01-31T10:34:44.866Z,42.25
2019-01-31T10:37:17.511Z,42.38
2019-01-31T10:39:52.676Z,40.51
2019-01-31T10:42:31.453Z,39.23
2019-01-31T10:45:24.210Z,39.58
2019-01-31T10:47:55.265Z,40.54
2019-01-31T10:50:39.766Z,41.29
2019-01-31T10:53:33.526Z,42.55
2019-01-31T10:56:34.970Z,43.29
2019-01-31T10:59:13.378Z,45.43
2019-01-31T11:01:52.089Z,45.74
2019-01-31T11:04:27.763Z,42.83
2019-01-31T11:07:23.078Z,42.58
2019-01-31T11:10:22.642Z,41.60
2019-01-31T11:13:00.823Z,41.10
2019-01-31T11:15:52.394Z,41.51
2019-01-31T11:18:41.745Z,40.07
2019-01-31T11:21:26.816Z,37.96
2019-01-31T11:24:27.752Z,39.18
2019-01-31T11:27:06.295Z,40.30
2019-01-31T11:29:59.358Z,39.38
2019-01-31T11:32:43.869Z,38.62
2019-01-31T11:35:32.894Z,36.98
2019-01-31T11:38:25.908Z,38.23
2019-01-31T11:41:17.220Z,38.02
2019-01-31T11:43:56.169Z,37.40
2019-01-31T11:46:46.551Z,38.47
2019-01-31T11:49:30.841Z,38.81
2019-01-31T11:52:09.434Z,40.04
2019-01-31T11:54:55.430Z,39.18
2019-01-31T11:57:58.083Z,39.18
2019-01-31T12:00:27.636Z,37.01
2019-01-31T12:02:57.086Z,38.85
2019-01-31T12:05:26.556Z,37.56
2019-01-31T12:07:56.061Z,38.03
2019-01-31T12:10:25.906Z,38.45
2019-01-31T12:12:55.542Z,38.64
2019-01-31T12:15:25.325Z,38.78
2019-01-31T12:17:54.788Z,39.14
2019-01-31T12:20:24.262Z,38.58
2019-01-31T12:22:53.751Z,38.16
2019-01-31T12:25:23.682Z,38.15
2019-01-31T12:27:53.466Z,38.36
2019-01-31T12:30:25.585Z,40.84
2019-01-31T12:32:55.040Z,38.83
2019-01-31T12:35:24.863Z,38.20
2019-01-31T12:37:54.356Z,38.52
2019-01-31T12:40:24.165Z,37.16
2019-01-31T12:42:53.631Z,38.09
2019-01-31T12:45:23.106Z,37.79
2019-01-31T12:47:52.569Z,38.57
2019-01-31T12:50:24.245Z,38.65
2019-01-31T12:52:54.003Z,39.85
2019-01-31T12:55:23.430Z,39.41
2019-01-31T12:57:52.972Z,39.19
2019-01-31T13:00:24.886Z,39.14
2019-01-31T13:02:54.515Z,40.59
2019-01-31T13:05:24.440Z,41.61
2019-01-31T13:07:54.280Z,39.88
2019-01-31T13:10:24.063Z,40.12
2019-01-31T13:12:53.773Z,40.13
2019-01-31T13:15:23.298Z,40.30
2019-01-31T13:17:54.226Z,40.72
2019-01-31T13:20:24.536Z,41.85
2019-01-31T13:22:55.332Z,41.25
2019-01-31T13:25:25.628Z,39.41
2019-01-31T13:27:55.169Z,40.40
2019-01-31T13:30:25.345Z,41.51
2019-01-31T13:32:56.405Z,41.60
2019-01-31T13:35:25.871Z,43.47
2019-01-31T13:37:55.334Z,45.09
2019-01-31T13:40:26.418Z,44.79
2019-01-31T13:42:55.885Z,45.78
2019-01-31T13:45:30.697Z,47.55
2019-01-31T13:48:02.128Z,47.30
2019-01-31T13:50:31.643Z,48.01
2019-01-31T13:53:02.049Z,47.75
2019-01-31T13:55:31.985Z,48.68
2019-01-31T13:58:01.469Z,48.91
2019-01-31T14:00:31.368Z,48.45
2019-01-31T14:03:01.164Z,49.62
2019-01-31T14:05:30.921Z,51.02
2019-01-31T14:08:00.664Z,50.20
2019-01-31T14:10:30.355Z,49.95
2019-01-31T14:12:59.818Z,49.95
2019-01-31T14:15:33.853Z,50.34
2019-01-31T14:18:03.546Z,50.66
2019-01-31T14:20:32.982Z,51.05
2019-01-31T14:23:02.856Z,51.68
2019-01-31T14:25:32.585Z,52.22
2019-01-31T14:28:02.052Z,53.53
2019-01-31T14:30:36.528Z,52.57
2019-01-31T14:33:09.000Z,53.27
2019-01-31T14:35:38.463Z,53.82
2019-01-31T14:38:07.980Z,54.40
2019-01-31T14:40:38.330Z,54.90
2019-01-31T14:43:09.423Z,55.32
2019-01-31T14:45:39.170Z,56.14
2019-01-31T14:48:08.636Z,56.33
2019-01-31T14:50:38.089Z,56.79
2019-01-31T14:53:07.726Z,57.25
2019-01-31T14:55:37.178Z,58.36
2019-01-31T14:58:08.186Z,59.25
2019-01-31T15:00:38.042Z,60.09
2019-01-31T15:03:07.500Z,60.45
2019-01-31T15:05:37.147Z,61.47
2019-01-31T15:08:08.382Z,62.19
2019-01-31T15:10:38.098Z,62.74
2019-01-31T15:13:07.570Z,63.86
2019-01-31T15:15:37.016Z,64.90
2019-01-31T15:18:07.963Z,65.46
2019-01-31T15:20:40.257Z,65.88
2019-01-31T15:23:09.733Z,66.37
2019-01-31T15:25:39.254Z,66.96
2019-01-31T15:28:09.043Z,67.58
2019-01-31T15:30:38.523Z,67.82
2019-01-31T15:33:10.825Z,68.69
2019-01-31T15:35:40.815Z,68.80
2019-01-31T15:38:10.351Z,69.07
2019-01-31T15:40:44.817Z,69.33
2019-01-31T15:43:14.505Z,69.62
2019-01-31T15:45:44.130Z,69.95
2019-01-31T15:48:13.834Z,70.25
2019-01-31T15:50:43.318Z,70.49
2019-01-31T15:53:12.774Z,70.75
2019-01-31T15:55:42.403Z,71.06
2019-01-31T15:58:11.861Z,70.90
2019-01-31T16:00:44.995Z,71.21
2019-01-31T16:03:16.746Z,71.28
2019-01-31T16:05:46.770Z,71.53
2019-01-31T16:08:16.681Z,71.55
2019-01-31T16:10:46.212Z,71.38
2019-01-31T16:13:15.710Z,72.00
2019-01-31T16:15:45.186Z,72.06
2019-01-31T16:18:15.222Z,72.19
2019-01-31T16:20:45.337Z,72.38
2019-01-31T16:23:15.249Z,72.54
2019-01-31T16:25:47.581Z,72.85
2019-01-31T16:28:16.250Z,72.79
2019-01-31T16:30:45.842Z,72.51
2019-01-31T16:33:15.271Z,72.45
2019-01-31T16:35:45.031Z,72.47
2019-01-31T16:38:14.525Z,72.75
2019-01-31T16:40:44.003Z,73.04
2019-01-31T16:43:13.452Z,73.15
2019-01-31T16:45:45.906Z,73.30
2019-01-31T16:48:14.148Z,73.31
2019-01-31T16:50:44.187Z,74.08
2019-01-31T16:53:13.921Z,73.34
2019-01-31T16:55:43.521Z,73.85
2019-01-31T16:58:13.353Z,72.88
2019-01-31T17:00:42.870Z,72.78
2019-01-31T17:03:13.167Z,72.71
2019-01-31T17:05:42.869Z,73.08
2019-01-31T17:08:12.720Z,73.07
2019-01-31T17:10:42.172Z,73.20
2019-01-31T17:13:11.637Z,73.58
2019-01-31T17:15:41.093Z,73.55
2019-01-31T17:18:10.647Z,73.63
2019-01-31T17:20:43.511Z,73.87
2019-01-31T17:23:13.324Z,73.79
2019-01-31T17:25:42.850Z,73.54
2019-01-31T17:28:12.333Z,73.90
2019-01-31T17:30:42.962Z,74.11
2019-01-31T17:33:13.768Z,74.30
2019-01-31T17:35:43.226Z,74.73
2019-01-31T17:38:13.036Z,75.17
2019-01-31T17:40:42.790Z,74.64
2019-01-31T17:43:12.293Z,75.05
2019-01-31T17:45:41.804Z,75.35
2019-01-31T17:48:12.538Z,75.33
2019-01-31T17:50:42.001Z,76.08
2019-01-31T17:53:11.773Z,76.85
2019-01-31T17:55:41.852Z,77.02
2019-01-31T17:58:11.384Z,76.87
2019-01-31T18:00:42.851Z,77.62
2019-01-31T18:03:12.401Z,77.34
2019-01-31T18:05:41.855Z,78.17
2019-01-31T18:08:11.393Z,78.34
2019-01-31T18:10:40.890Z,78.67
2019-01-31T18:13:10.682Z,79.40
2019-01-31T18:15:42.266Z,80.21
2019-01-31T18:18:11.302Z,80.21
2019-01-31T18:20:40.769Z,80.44
2019-01-31T18:23:10.222Z,80.54
2019-01-31T18:25:40.081Z,80.82
2019-01-31T18:28:12.200Z,81.19
2019-01-31T18:30:40.949Z,81.56
2019-01-31T18:33:10.405Z,81.33
2019-01-31T18:35:39.912Z,81.59
2019-01-31T18:38:09.421Z,82.04
2019-01-31T18:40:38.885Z,82.33
2019-01-31T18:43:08.338Z,82.10
2019-01-31T18:45:38.156Z,82.67
2019-01-31T18:48:07.676Z,83.11
2019-01-31T18:50:39.943Z,83.45
2019-01-31T18:53:09.937Z,83.55
2019-01-31T18:55:39.474Z,83.80
2019-01-31T18:58:08.926Z,84.40
2019-01-31T19:00:44.199Z,84.56
2019-01-31T19:03:13.818Z,86.40
2019-01-31T19:05:43.348Z,85.51
2019-01-31T19:08:13.069Z,86.80
2019-01-31T19:10:43.752Z,83.79
2019-01-31T19:13:13.499Z,83.46
2019-01-31T19:15:42.954Z,84.33
2019-01-31T19:18:12.439Z,84.56
2019-01-31T19:20:42.121Z,85.20
2019-01-31T19:23:11.609Z,85.62
2019-01-31T19:25:41.366Z,85.88
2019-01-31T19:28:13.088Z,86.32
2019-01-31T19:30:42.049Z,86.38
2019-01-31T19:33:11.511Z,86.91
2019-01-31T19:35:41.304Z,87.10
2019-01-31T19:38:10.889Z,86.98
2019-01-31T19:40:42.296Z,87.21
2019-01-31T19:43:11.838Z,87.33
2019-01-31T19:45:43.580Z,87.58
2019-01-31T19:48:13.232Z,87.54
2019-01-31T19:50:43.702Z,87.90
2019-01-31T19:53:13.340Z,88.27
2019-01-31T19:55:42.876Z,88.23
2019-01-31T19:58:12.414Z,88.23
2019-01-31T20:00:41.871Z,88.24
2019-01-31T20:03:11.751Z,88.49
2019-01-31T20:05:41.229Z,88.45
2019-01-31T20:08:10.757Z,88.15
2019-01-31T20:10:40.499Z,88.22
2019-01-31T20:13:10.203Z,88.10
2019-01-31T20:15:39.761Z,88.18
2019-01-31T20:18:09.301Z,88.46
2019-01-31T20:20:38.759Z,88.60
2019-01-31T20:23:10.915Z,88.67
2019-01-31T20:25:39.972Z,88.67
2019-01-31T20:28:09.890Z,89.06
2019-01-31T20:30:39.596Z,89.19
2019-01-31T20:33:09.297Z,89.28
2019-01-31T20:35:38.759Z,88.87
2019-01-31T20:38:08.211Z,89.03
2019-01-31T20:40:39.313Z,89.15
2019-01-31T20:43:08.907Z,88.84
2019-01-31T20:45:38.376Z,88.96
2019-01-31T20:48:08.173Z,88.82
2019-01-31T20:50:39.141Z,89.11
2019-01-31T20:53:08.737Z,89.06
2019-01-31T20:55:38.202Z,89.39
2019-01-31T20:58:07.795Z,89.61
2019-01-31T21:00:42.245Z,89.53
2019-01-31T21:03:12.472Z,89.66
2019-01-31T21:05:42.102Z,89.67
2019-01-31T21:08:11.812Z,90.12
2019-01-31T21:10:41.736Z,89.70
2019-01-31T21:13:12.927Z,89.60
2019-01-31T21:15:42.423Z,89.55
2019-01-31T21:18:12.009Z,89.74
2019-01-31T21:20:41.582Z,89.73
2019-01-31T21:23:11.386Z,90.03
2019-01-31T21:25:41.189Z,90.07
2019-01-31T21:28:10.660Z,90.12
2019-01-31T21:30:40.356Z,90.16
2019-01-31T21:33:09.896Z,90.21
2019-01-31T21:35:39.447Z,90.46
2019-01-31T21:38:08.973Z,90.52
2019-01-31T21:40:38.438Z,90.49
2019-01-31T21:43:07.986Z,90.82
2019-01-31T21:45:37.528Z,90.98
2019-01-31T21:48:07.657Z,91.33
2019-01-31T21:50:37.478Z,91.32
2019-01-31T21:53:07.019Z,91.60
2019-01-31T21:55:36.476Z,91.91
2019-01-31T21:58:06.305Z,92.31
2019-01-31T22:00:36.895Z,92.16
2019-01-31T22:03:07.056Z,92.20
2019-01-31T22:05:36.782Z,91.93
2019-01-31T22:08:06.527Z,91.59
2019-01-31T22:10:35.992Z,91.23
2019-01-31T22:13:05.529Z,91.03
2019-01-31T22:15:35.926Z,91.00
2019-01-31T22:18:06.372Z,90.84
2019-01-31T22:20:35.907Z,90.47
2019-01-31T22:23:05.447Z,90.65
2019-01-31T22:25:34.918Z,90.81
2019-01-31T22:28:05.135Z,90.75
2019-01-31T22:30:36.344Z,90.59
2019-01-31T22:33:06.474Z,90.42
2019-01-31T22:35:36.019Z,90.72
2019-01-31T22:38:05.925Z,90.94
2019-01-31T22:40:35.381Z,91.30
2019-01-31T22:43:05.174Z,91.15
2019-01-31T22:45:34.659Z,91.10
2019-01-31T22:48:04.973Z,91.07
2019-01-31T22:50:34.710Z,90.94
2019-01-31T22:53:04.189Z,90.38
2019-01-31T22:55:33.894Z,90.04
2019-01-31T22:58:03.373Z,89.92
2019-01-31T23:00:52.626Z,89.52
2019-01-31T23:03:22.384Z,89.13
2019-01-31T23:05:52.099Z,88.55
2019-01-31T23:08:21.607Z,88.55
2019-01-31T23:10:51.291Z,87.88
2019-01-31T23:13:20.782Z,87.68
2019-01-31T23:15:50.607Z,87.77
2019-01-31T23:18:20.050Z,88.13
2019-01-31T23:20:49.516Z,88.38
2019-01-31T23:23:19.268Z,88.45
2019-01-31T23:25:48.732Z,88.82
2019-01-31T23:28:18.221Z,88.30
2019-01-31T23:30:48.774Z,87.75
2019-01-31T23:33:18.244Z,87.59
2019-01-31T23:35:48.025Z,87.56
2019-01-31T23:38:17.531Z,87.40
2019-01-31T23:40:47.342Z,87.24
2019-01-31T23:43:16.803Z,87.37
2019-01-31T23:45:46.276Z,87.40
2019-01-31T23:48:15.759Z,86.88
2019-01-31T23:50:45.584Z,87.33
2019-01-31T23:53:15.227Z,87.39
2019-01-31T23:55:44.983Z,87.41
2019-01-31T23:58:14.479Z,87.62
